The Terrace, New York
Current Conditions -  °F | °C
As of 11:00 AM on Thursday 27 Nov 2014 (Local Time) from KLGA Reporting Station
Light Snow Light Snow  
Wind Chill: 29°   Ceiling: 2000
Heat Index: 36°   Visibility: 5mi
Dew Point: 32°   Wind: 8mph
Humidity: 87%   Direction: 330°NNW
Pressure: 30"   Gusts: NA
Location:  40.8387°N, 73.6912°W
Report Text: KLGA 271600Z 33007KT 5SM -SN BR SCT013 BKN020 OVC030 02/00 A3000 RMK AO2 P0000
Loading
Personal Weather Stations






























Interactive Weather Map New forecast layout! Learn more

10-Day Weather Forecast

Advertisements
Track Severe Weather on mobile